Termez, Uzbekistan
Current Conditions -  °F | °C
As of 1:00 AM on Saturday 01 Nov 2014 (Local Time) from UTST Reporting Station
Clear Clear  
Wind Chill: 39°   Ceiling: Unl
Heat Index: 43°   Visibility: 6mi
Dew Point: 34°   Wind: 7mph
Humidity: 70%   Direction: 50°NE
Pressure: 30.12"   Gusts: NA
Location:  37.22°N, 67.27°E
Report Text: UTST 312000Z 05003MPS CAVOK 06/01 Q1020 R88/CLRD70 NOSIG
Loading
Personal Weather Stations






























Interactive Weather Map
Tropical Storm Tracking
New forecast layout! Learn more

10-Day Weather Forecast

Advertisements
Track Severe Weather on mobile